Watertown, Ohio
Current Conditions -  °F | °C
As of 10:53 AM on Sunday 21 Dec 2014 (Local Time) from KPKB Reporting Station
Few Clouds Few Clouds  
Wind Chill: 36°   Ceiling: Unl
Heat Index: 36°   Visibility: 10mi
Dew Point: 24°   Wind: 0mph
Humidity: 62%   Direction: NA
Pressure: 30.35"   Gusts: NA
Location:  39.47°N, 81.63°W
Report Text: KPKB 211553Z 00000KT 10SM FEW045 02/M04 A3035 RMK AO2 SLP283 T00221044
Loading
Personal Weather Stations






























Interactive Weather Map New forecast layout! Learn more

10-Day Weather Forecast

Advertisements
Track Severe Weather on mobile